Capt. Kirk Colletti — WDF9430 — position and weather

sailwx.info

Track history (hours):
 
Tides and Currents Weather Stations Pressure Air Temp Water Temp Dewpoint Dewpoint Depression Visibility Wind Speed Wind Dir Waves Ship Positions

Capt. Kirk Colletti

Owner: Genesis Marine, LLC, Houston, TX. More information available from US FCC via Universal Licensing System and Coast Guard Vessel Documentation Center.

Last reported at 2017-Sep-03 01:15 UTC. Time now 2017-Sep-19 17:19 UTC.
Position N 29°33' W 090°24'.
Warning: this ship's position is 16 days out of date.

Length 25 m; draft 3 m.

Type: Other ship. MMSI: 367505080.

Date/timePositionNaut miles runAvg speedWind from/ knotsBaromVisibWave heightAir tempDewpointWater temp
2017-Sep-03 01:15N 29°33' W 090°24'0 0.9
2017-Sep-03 00:56N 29°33' W 090°25'0 0.1
2017-Sep-03 00:25N 29°33' W 090°25'0 0.0
2017-Sep-02 23:55N 29°33' W 090°25'0 0.0
2017-Sep-02 22:56N 29°33' W 090°25'0 0.0
2017-Sep-02 22:14N 29°33' W 090°25'0 0.3
2017-Sep-02 22:00N 29°33' W 090°25'3 4.2
2017-Sep-02 21:19N 29°34' W 090°28'2 5.0
2017-Sep-02 20:57N 29°34' W 090°30'2 5.0
2017-Sep-02 20:30N 29°34' W 090°33'2 3.9
2017-Sep-02 20:00N 29°34' W 090°35'2 4.5
2017-Sep-02 19:30N 29°35' W 090°37'2 3.6
2017-Sep-02 19:00N 29°36' W 090°39'2 3.8
2017-Sep-02 18:30N 29°36' W 090°41'1 2.7
2017-Sep-02 18:00N 29°36' W 090°43'2 4.0
2017-Sep-02 17:30N 29°34' W 090°43'2 4.8
2017-Sep-02 17:01N 29°33' W 090°46'3 5.8
2017-Sep-02 16:30N 29°32' W 090°49'4 6.2
2017-Sep-02 15:55N 29°32' W 090°53'60 3.9
2017-Sep-02 00:23N 29°50' W 091°59'2 5.9
2017-Sep-02 00:00N 29°49' W 092°02'2 4.1
2017-Sep-01 23:30N 29°49' W 092°04'2 4.1
2017-Sep-01 23:00N 29°48' W 092°06'2 4.2
2017-Sep-01 22:30N 29°47' W 092°08'2 4.5
2017-Sep-01 22:00N 29°47' W 092°11'2 4.6
2017-Sep-01 21:30N 29°47' W 092°13'3 5.1
2017-Sep-01 21:00N 29°48' W 092°16'3 5.3
2017-Sep-01 20:30N 29°50' W 092°18'36 4.7
2017-Sep-01 12:51N 29°56' W 092°60'2 4.7
2017-Sep-01 12:30N 29°56' W 093°01'2 4.3
2017-Sep-01 12:00N 29°56' W 093°04'1 3.0
2017-Sep-01 11:30N 29°56' W 093°06'2 4.4
2017-Sep-01 11:00N 29°56' W 093°08'2 4.2
2017-Sep-01 10:30N 29°57' W 093°10'2 4.5
2017-Sep-01 10:00N 29°59' W 093°12'2 4.4
2017-Sep-01 09:30N 30°00' W 093°14'2 3.6
2017-Sep-01 09:00N 30°02' W 093°15'2 3.5
2017-Sep-01 08:30N 30°03' W 093°16'2 3.9
2017-Sep-01 08:01N 30°05' W 093°17'1 2.7
2017-Sep-01 07:30N 30°06' W 093°18'1 1.6
2017-Sep-01 07:00N 30°06' W 093°19'0 0.0
2017-Sep-01 06:30N 30°06' W 093°19'0 0.0
2017-Sep-01 06:00N 30°06' W 093°19'0 0.0
2017-Sep-01 05:30N 30°06' W 093°19'0 0.0
2017-Sep-01 05:00N 30°06' W 093°19'0 0.0
2017-Sep-01 04:30N 30°06' W 093°19'0 0.0
2017-Sep-01 04:00N 30°06' W 093°19'0 0.0
2017-Sep-01 03:30N 30°06' W 093°19'0 0.0
2017-Sep-01 03:00N 30°06' W 093°19'0 0.0
2017-Sep-01 02:30N 30°06' W 093°19'0 0.0
2017-Sep-01 02:00N 30°06' W 093°19'0 0.0
2017-Sep-01 01:30N 30°06' W 093°19'0 0.0
2017-Sep-01 01:01N 30°06' W 093°19'0 0.0
2017-Sep-01 00:30N 30°06' W 093°19'0 0.2
2017-Sep-01 00:00N 30°06' W 093°19'0 0.9
2017-Aug-31 23:30N 30°05' W 093°20'0 0.5
2017-Aug-31 23:00N 30°05' W 093°20'0 0.8
2017-Aug-31 22:30N 30°05' W 093°20'0 0.0
2017-Aug-31 22:00N 30°05' W 093°20'3 6.0
2017-Aug-31 21:30N 30°08' W 093°20'3 5.0
2017-Aug-31 21:00N 30°10' W 093°19'0 0.0
2017-Aug-31 20:30N 30°10' W 093°19'0 0.0
2017-Aug-31 20:00N 30°10' W 093°19'0 0.0
2017-Aug-31 19:30N 30°10' W 093°19'6 0.7
2017-Aug-31 11:52N 30°05' W 093°20'0 0.0
2017-Aug-31 11:30N 30°05' W 093°20'0 0.0
2017-Aug-31 11:00N 30°05' W 093°20'0 0.0
2017-Aug-31 10:30N 30°05' W 093°20'0 0.0
2017-Aug-31 10:00N 30°05' W 093°20'0 0.0
2017-Aug-31 09:30N 30°05' W 093°20'0 0.0
2017-Aug-31 09:00N 30°05' W 093°20'0 0.0
2017-Aug-31 08:30N 30°05' W 093°20'0 0.0
2017-Aug-31 08:00N 30°05' W 093°20'0 0.0
2017-Aug-31 07:30N 30°05' W 093°20'0 0.0
2017-Aug-31 07:00N 30°05' W 093°20'0 0.0
2017-Aug-31 06:30N 30°05' W 093°20'0 0.0
2017-Aug-31 06:00N 30°05' W 093°20'0 0.0
2017-Aug-31 05:30N 30°05' W 093°20'0 0.0
2017-Aug-31 05:00N 30°05' W 093°20'0 0.0
2017-Aug-31 04:30N 30°05' W 093°20'0 0.0
2017-Aug-31 04:00N 30°05' W 093°20'0 0.0
2017-Aug-31 03:30N 30°05' W 093°20'0 0.0
2017-Aug-31 03:00N 30°05' W 093°20'0 0.0
2017-Aug-31 02:30N 30°05' W 093°20'0 0.0
2017-Aug-31 02:00N 30°05' W 093°20'0 0.0
2017-Aug-31 01:30N 30°05' W 093°20'0 0.0
2017-Aug-31 01:00N 30°05' W 093°20'0 0.0
2017-Aug-31 00:30N 30°05' W 093°20'0 0.0
2017-Aug-31 00:00N 30°05' W 093°20'0 0.0
2017-Aug-30 23:30N 30°05' W 093°20'0 0.0
2017-Aug-30 23:00N 30°05' W 093°20'0 0.0
2017-Aug-30 22:30N 30°05' W 093°20'0 0.0
2017-Aug-30 22:00N 30°05' W 093°20'0 0.0
2017-Aug-30 21:31N 30°05' W 093°20'0 0.6
2017-Aug-30 21:00N 30°05' W 093°20'1 1.8
2017-Aug-30 20:30N 30°06' W 093°20'3 6.9
2017-Aug-30 20:00N 30°09' W 093°20'1 2.2
2017-Aug-30 19:30N 30°10' W 093°19'0 0.0
2017-Aug-30 19:00N 30°10' W 093°19'0 0.0
2017-Aug-30 18:30N 30°10' W 093°19'0 0.0
2017-Aug-30 18:00N 30°10' W 093°19'0 0.0
2017-Aug-30 17:30N 30°10' W 093°19'0 0.0
2017-Aug-30 17:01N 30°10' W 093°19'0 0.0
2017-Aug-30 16:30N 30°10' W 093°19'0 0.0
2017-Aug-30 16:00N 30°10' W 093°19'0 0.0
2017-Aug-30 15:30N 30°10' W 093°19'0 0.0
2017-Aug-30 15:00N 30°10' W 093°19'0 0.0
2017-Aug-30 14:30N 30°10' W 093°19'0 0.0
2017-Aug-30 14:00N 30°10' W 093°19'0 0.0
2017-Aug-30 13:30N 30°10' W 093°19'0 0.0
2017-Aug-30 13:00N 30°10' W 093°19'0 0.0
2017-Aug-30 12:30N 30°10' W 093°19'0 0.0
2017-Aug-30 12:00N 30°10' W 093°19'0 0.0
2017-Aug-30 11:30N 30°10' W 093°19'0 0.0
2017-Aug-30 11:00N 30°10' W 093°19'0 0.0
2017-Aug-30 10:30N 30°10' W 093°19'0 0.0
2017-Aug-30 10:01N 30°10' W 093°19'0 0.0
2017-Aug-30 09:30N 30°10' W 093°19'0 0.0
2017-Aug-30 09:00N 30°10' W 093°19'0 0.0
2017-Aug-30 08:30N 30°10' W 093°19'0 0.0
2017-Aug-30 08:00N 30°10' W 093°19'0 0.0
2017-Aug-30 07:30N 30°10' W 093°19'0 0.0
2017-Aug-30 07:00N 30°10' W 093°19'0 0.0
2017-Aug-30 06:30N 30°10' W 093°19'0 0.0
2017-Aug-30 06:00N 30°10' W 093°19'0 0.0
2017-Aug-30 05:30N 30°10' W 093°19'0 0.0
2017-Aug-30 05:00N 30°10' W 093°19'0 0.0
2017-Aug-30 04:30N 30°10' W 093°19'0 0.0
2017-Aug-30 04:00N 30°10' W 093°19'0 0.0
2017-Aug-30 03:31N 30°10' W 093°19'0 0.0
2017-Aug-30 03:00N 30°10' W 093°19'0 0.0
2017-Aug-30 02:30N 30°10' W 093°19'0 0.0
2017-Aug-30 02:00N 30°10' W 093°19'0 0.0
2017-Aug-30 01:30N 30°10' W 093°19'0 0.0
2017-Aug-30 01:00N 30°10' W 093°19'0 0.0
2017-Aug-30 00:30N 30°10' W 093°19'0 0.0
2017-Aug-30 00:00N 30°10' W 093°19'0 0.0
2017-Aug-29 23:30N 30°10' W 093°19'0 0.0
2017-Aug-29 23:00N 30°10' W 093°19'0 0.0
2017-Aug-29 22:30N 30°10' W 093°19'0 0.0
2017-Aug-29 22:00N 30°10' W 093°19'0 0.0
2017-Aug-29 21:30N 30°10' W 093°19'0 0.0
2017-Aug-29 21:00N 30°10' W 093°19'0 0.0
2017-Aug-29 20:30N 30°10' W 093°19'0 0.0
2017-Aug-29 20:00N 30°10' W 093°19'0 0.0
2017-Aug-29 19:30N 30°10' W 093°19'0 0.0
2017-Aug-29 19:00N 30°10' W 093°19'0 0.0
2017-Aug-29 18:30N 30°10' W 093°19'0 0.0
2017-Aug-29 18:00N 30°10' W 093°19'0 0.0
2017-Aug-29 17:30N 30°10' W 093°19'0 0.0
2017-Aug-29 17:00N 30°10' W 093°19'0 0.0
2017-Aug-29 16:30N 30°10' W 093°19'0 0.0
2017-Aug-29 16:00N 30°10' W 093°19'0 0.0
2017-Aug-29 15:30N 30°10' W 093°19'0 0.0
2017-Aug-29 15:00N 30°10' W 093°19'0 0.0
2017-Aug-29 14:31N 30°10' W 093°19'0 0.0
2017-Aug-29 14:00N 30°10' W 093°19'0 0.0
2017-Aug-29 13:30N 30°10' W 093°19'0 0.0
2017-Aug-29 13:00N 30°10' W 093°19'0 0.0
2017-Aug-29 12:30N 30°10' W 093°19'0 0.0
2017-Aug-29 12:00N 30°10' W 093°19'0 0.0
2017-Aug-29 11:31N 30°10' W 093°19'0 0.0
2017-Aug-29 11:00N 30°10' W 093°19'0 0.0
2017-Aug-29 10:30N 30°10' W 093°19'0 0.0
2017-Aug-29 10:00N 30°10' W 093°19'0 0.0
2017-Aug-29 09:30N 30°10' W 093°19'0 0.0
2017-Aug-29 09:00N 30°10' W 093°19'0 0.0
2017-Aug-29 08:31N 30°10' W 093°19'0 0.0
2017-Aug-29 08:00N 30°10' W 093°19'0 0.0
2017-Aug-29 07:30N 30°10' W 093°19'0 0.0
2017-Aug-29 07:00N 30°10' W 093°19'0 0.0
2017-Aug-29 06:30N 30°10' W 093°19'0 0.0
2017-Aug-29 06:01N 30°10' W 093°19'0 0.0
2017-Aug-29 05:30N 30°10' W 093°19'0 0.0
2017-Aug-29 05:00N 30°10' W 093°19'0 0.0
2017-Aug-29 04:30N 30°10' W 093°19'0 0.0
2017-Aug-29 04:00N 30°10' W 093°19'0 0.0
2017-Aug-29 03:30N 30°10' W 093°19'0 0.0
2017-Aug-29 03:01N 30°10' W 093°19'0 0.0
2017-Aug-29 02:30N 30°10' W 093°19'0 0.0
2017-Aug-29 02:00N 30°10' W 093°19'0 0.0
2017-Aug-29 01:30N 30°10' W 093°19'0 0.0
2017-Aug-29 01:00N 30°10' W 093°19'0 0.0
2017-Aug-29 00:30N 30°10' W 093°19'0 0.0
2017-Aug-29 00:00N 30°10' W 093°19'0 0.0
2017-Aug-28 23:30N 30°10' W 093°19'1 1.1
2017-Aug-28 23:00N 30°11' W 093°19'1 1.1
2017-Aug-28 22:30N 30°10' W 093°19'0 0.0
2017-Aug-28 22:00N 30°10' W 093°19'0 0.0
2017-Aug-28 21:31N 30°10' W 093°19'0 0.0
2017-Aug-28 21:00N 30°10' W 093°19'0 0.0
2017-Aug-28 20:30N 30°10' W 093°19'0 0.0
2017-Aug-28 20:00N 30°10' W 093°19'0 0.0
2017-Aug-28 19:30N 30°10' W 093°19'0 0.0
2017-Aug-28 19:00N 30°10' W 093°19'0 0.1
2017-Aug-28 18:30N 30°10' W 093°19'1 2.3
2017-Aug-28 18:00N 30°09' W 093°20'1 2.9
2017-Aug-28 17:30N 30°08' W 093°20'1 2.0
2017-Aug-28 17:00N 30°07' W 093°20'3 7.0
2017-Aug-28 16:30N 30°10' W 093°19'0 0.0
2017-Aug-28 16:01N 30°10' W 093°19'0 0.0
2017-Aug-28 15:31N 30°10' W 093°19'0 0.1
2017-Aug-28 15:00N 30°10' W 093°19'0 0.0
2017-Aug-28 14:30N 30°10' W 093°19'0 0.3
2017-Aug-28 14:00N 30°10' W 093°19'3 5.8
2017-Aug-28 13:30N 30°07' W 093°20'2 4.5
2017-Aug-28 13:00N 30°05' W 093°20'0 0.7
2017-Aug-28 12:30N 30°05' W 093°20'0 0.1
2017-Aug-28 12:00N 30°05' W 093°20'0 0.0
2017-Aug-28 11:30N 30°05' W 093°20'0 0.0
2017-Aug-28 11:01N 30°05' W 093°20'0 0.0
2017-Aug-28 10:30N 30°05' W 093°20'0 0.0
2017-Aug-28 10:00N 30°05' W 093°20'0 0.0
2017-Aug-28 09:30N 30°05' W 093°20'0 0.0
2017-Aug-28 09:00N 30°05' W 093°20'0 0.0
2017-Aug-28 08:30N 30°05' W 093°20'0 0.0
2017-Aug-28 08:00N 30°05' W 093°20'0 0.0
2017-Aug-28 07:30N 30°05' W 093°20'0 0.0
2017-Aug-28 07:00N 30°05' W 093°20'0 0.0
2017-Aug-28 06:31N 30°05' W 093°20'0 0.0
2017-Aug-28 06:00N 30°05' W 093°20'0 0.0
2017-Aug-28 05:30N 30°05' W 093°20'0 0.0
2017-Aug-28 05:00N 30°05' W 093°20'0 0.0
2017-Aug-28 04:30N 30°05' W 093°20'0 0.0
2017-Aug-28 04:00N 30°05' W 093°20'0 0.0
2017-Aug-28 03:30N 30°05' W 093°20'0 0.0
2017-Aug-28 03:00N 30°05' W 093°20'0 0.0
2017-Aug-28 02:30N 30°05' W 093°20'0 0.0
2017-Aug-28 02:00N 30°05' W 093°20'0 0.0
2017-Aug-28 01:31N 30°05' W 093°20'0 0.0
2017-Aug-28 01:01N 30°05' W 093°20'0 0.0
2017-Aug-28 00:30N 30°05' W 093°20'0 0.0
2017-Aug-28 00:00N 30°05' W 093°20'0 0.0
2017-Aug-27 23:30N 30°05' W 093°20'0 0.1
2017-Aug-27 23:00N 30°05' W 093°20'0 0.3
2017-Aug-27 22:30N 30°05' W 093°20'0 0.0
2017-Aug-27 22:01N 30°05' W 093°20'0 0.0
2017-Aug-27 21:30N 30°05' W 093°20'0 0.0
2017-Aug-27 21:00N 30°05' W 093°20'0 0.0
2017-Aug-27 20:30N 30°05' W 093°20'0 0.0
2017-Aug-27 20:01N 30°05' W 093°20'0 0.0
2017-Aug-27 19:30N 30°05' W 093°20'0 0.0
2017-Aug-27 19:00N 30°05' W 093°20'0 0.0
2017-Aug-27 18:30N 30°05' W 093°20'0 0.0
2017-Aug-27 18:00N 30°05' W 093°20'0 0.0
2017-Aug-27 17:30N 30°05' W 093°20'0 0.0
2017-Aug-27 17:00N 30°05' W 093°20'0 0.0
2017-Aug-27 16:30N 30°05' W 093°20'0 0.0
2017-Aug-27 16:00N 30°05' W 093°20'0 0.0
2017-Aug-27 15:30N 30°05' W 093°20'0 0.0
2017-Aug-27 15:00N 30°05' W 093°20'0 0.0
2017-Aug-27 14:30N 30°05' W 093°20'0 0.0
2017-Aug-27 14:00N 30°05' W 093°20'0 0.1
2017-Aug-27 13:30N 30°05' W 093°20'0 0.7
2017-Aug-27 13:00N 30°05' W 093°20'2 3.0
2017-Aug-27 12:30N 30°07' W 093°20'2 4.2
2017-Aug-27 12:00N 30°09' W 093°20'2 4.1
2017-Aug-27 11:30N 30°11' W 093°19'0 0.9
2017-Aug-27 11:00N 30°11' W 093°19'0 0.0
2017-Aug-27 10:31N 30°11' W 093°19'0 0.0
2017-Aug-27 10:01N 30°11' W 093°19'0 0.0
2017-Aug-27 09:30N 30°11' W 093°19'0 0.0
2017-Aug-27 09:00N 30°11' W 093°19'0 0.0
2017-Aug-27 08:30N 30°11' W 093°19'0 0.0
2017-Aug-27 08:01N 30°11' W 093°19'0 0.0
2017-Aug-27 07:30N 30°11' W 093°19'0 0.0
2017-Aug-27 07:00N 30°11' W 093°19'0 0.0
2017-Aug-27 06:30N 30°11' W 093°19'0 0.0
2017-Aug-27 06:00N 30°11' W 093°19'0 0.0
2017-Aug-27 05:30N 30°11' W 093°19'0 0.0
2017-Aug-27 05:00N 30°11' W 093°19'0 0.0
2017-Aug-27 04:30N 30°11' W 093°19'0 0.0
2017-Aug-27 04:00N 30°11' W 093°19'0 0.0
2017-Aug-27 03:30N 30°11' W 093°19'0 0.0
2017-Aug-27 03:00N 30°11' W 093°19'0 0.0
2017-Aug-27 02:30N 30°11' W 093°19'0 0.0
2017-Aug-27 02:00N 30°11' W 093°19'0 0.0
2017-Aug-27 01:31N 30°11' W 093°19'0 0.0
2017-Aug-27 01:00N 30°11' W 093°19'0 0.0
2017-Aug-27 00:30N 30°11' W 093°19'0 0.0
2017-Aug-27 00:00N 30°11' W 093°19'0 0.0
2017-Aug-26 23:30N 30°11' W 093°19'0 0.0
2017-Aug-26 23:00N 30°11' W 093°19'0 0.0
2017-Aug-26 22:30N 30°11' W 093°19'0 0.0
2017-Aug-26 22:00N 30°11' W 093°19'0 0.0
2017-Aug-26 21:30N 30°11' W 093°19'0 0.0
2017-Aug-26 21:00N 30°11' W 093°19'0 0.0
2017-Aug-26 20:30N 30°11' W 093°19'0 0.0
2017-Aug-26 20:00N 30°11' W 093°19'0 0.0
2017-Aug-26 19:30N 30°11' W 093°19'0 0.0
2017-Aug-26 19:00N 30°11' W 093°19'0 0.0
2017-Aug-26 18:30N 30°11' W 093°19'0 0.0
2017-Aug-26 18:01N 30°11' W 093°19'0 0.0
2017-Aug-26 17:30N 30°11' W 093°19'0 0.0
2017-Aug-26 17:00N 30°11' W 093°19'0 0.0
2017-Aug-26 16:31N 30°11' W 093°19'0 0.0
2017-Aug-26 16:00N 30°11' W 093°19'0 0.0
2017-Aug-26 15:31N 30°11' W 093°19'0 0.0
2017-Aug-26 15:00N 30°11' W 093°19'0 0.0
2017-Aug-26 14:00N 30°11' W 093°19'0 0.0
2017-Aug-26 13:30N 30°11' W 093°19'0 0.0
2017-Aug-26 13:00N 30°11' W 093°19'0 0.0
2017-Aug-26 12:30N 30°11' W 093°19'0 0.0
2017-Aug-26 12:00N 30°11' W 093°19'0 0.0
2017-Aug-26 11:30N 30°11' W 093°19'0 0.0
2017-Aug-26 11:00N 30°11' W 093°19'0 0.0
2017-Aug-26 10:30N 30°11' W 093°19'0 0.0
2017-Aug-26 10:00N 30°11' W 093°19'0 0.0
2017-Aug-26 09:30N 30°11' W 093°19'0 0.0
2017-Aug-26 09:00N 30°11' W 093°19'0 0.0
2017-Aug-26 08:30N 30°11' W 093°19'0 0.0
2017-Aug-26 08:00N 30°11' W 093°19'0 0.0
2017-Aug-26 07:30N 30°11' W 093°19'0 0.0
2017-Aug-26 07:00N 30°11' W 093°19'0 0.0
2017-Aug-26 06:30N 30°11' W 093°19'0 0.0
2017-Aug-26 06:00N 30°11' W 093°19'0 0.5
2017-Aug-26 05:30N 30°11' W 093°18'0 0.0
2017-Aug-26 05:00N 30°11' W 093°18'0 0.5
2017-Aug-26 04:30N 30°11' W 093°19'0 0.0
2017-Aug-26 04:00N 30°11' W 093°19'0 0.0
2017-Aug-26 03:30N 30°11' W 093°19'0 0.0
2017-Aug-26 03:00N 30°11' W 093°19'0 0.0
2017-Aug-26 02:30N 30°11' W 093°19'0 0.0
2017-Aug-26 02:00N 30°11' W 093°19'0 0.0
2017-Aug-26 01:31N 30°11' W 093°19'0 0.0
2017-Aug-26 01:00N 30°11' W 093°19'0 0.0
2017-Aug-26 00:30N 30°11' W 093°19'0 0.0
2017-Aug-26 00:00N 30°11' W 093°19'0 0.0
2017-Aug-25 23:31N 30°11' W 093°19'0 0.0
2017-Aug-25 23:00N 30°11' W 093°19'0 0.0
2017-Aug-25 22:30N 30°11' W 093°19'0 0.0
2017-Aug-25 22:00N 30°11' W 093°19'0 0.0
2017-Aug-25 21:30N 30°11' W 093°19'0 0.0
2017-Aug-25 21:00N 30°11' W 093°19'0 0.0
2017-Aug-25 20:30N 30°11' W 093°19'0 0.0
2017-Aug-25 20:00N 30°11' W 093°19'0 0.0
2017-Aug-25 19:31N 30°11' W 093°19'0 0.0
2017-Aug-25 19:00N 30°11' W 093°19'0 0.0
2017-Aug-25 18:30N 30°11' W 093°19'0 0.0
2017-Aug-25 18:00N 30°11' W 093°19'0 0.0
2017-Aug-25 17:31N 30°11' W 093°19'0 0.0
2017-Aug-25 17:00N 30°11' W 093°19'0 0.0
2017-Aug-25 16:31N 30°11' W 093°19'0 0.0
2017-Aug-25 16:00N 30°11' W 093°19'0 0.0
2017-Aug-25 15:30N 30°11' W 093°19'0 0.0
2017-Aug-25 15:00N 30°11' W 093°19'0 0.0
2017-Aug-25 14:00N 30°11' W 093°19'0 0.0
2017-Aug-25 13:30N 30°11' W 093°19'0 0.0
2017-Aug-25 13:00N 30°11' W 093°19'0 0.0
2017-Aug-25 12:30N 30°11' W 093°19'0 0.0
2017-Aug-25 12:00N 30°11' W 093°19'0 0.0
2017-Aug-25 11:31N 30°11' W 093°19'0 0.0
2017-Aug-25 11:00N 30°11' W 093°19'0 0.0
2017-Aug-25 10:30N 30°11' W 093°19'0 0.0
2017-Aug-25 10:00N 30°11' W 093°19'0 0.0
2017-Aug-25 09:30N 30°11' W 093°19'0 0.0
2017-Aug-25 09:00N 30°11' W 093°19'0 0.0
2017-Aug-25 08:30N 30°11' W 093°19'0 0.0
2017-Aug-25 08:00N 30°11' W 093°19'0 0.0
2017-Aug-25 07:30N 30°11' W 093°19'0 0.0
2017-Aug-25 07:00N 30°11' W 093°19'0 0.0
2017-Aug-25 06:30N 30°11' W 093°19'0 0.0
2017-Aug-25 06:00N 30°11' W 093°19'0 0.0
2017-Aug-25 05:30N 30°11' W 093°19'0 0.0
2017-Aug-25 05:00N 30°11' W 093°19'0 0.0
2017-Aug-25 04:30N 30°11' W 093°19'0 0.0
2017-Aug-25 04:00N 30°11' W 093°19'0 0.0
2017-Aug-25 03:30N 30°11' W 093°19'0 0.0
2017-Aug-25 03:01N 30°11' W 093°19'0 0.0
2017-Aug-25 02:31N 30°11' W 093°19'0 0.0
2017-Aug-25 02:00N 30°11' W 093°19'0 0.0
2017-Aug-25 01:30N 30°11' W 093°19'0 0.0
2017-Aug-25 01:00N 30°11' W 093°19'0 0.0
2017-Aug-25 00:30N 30°11' W 093°19'0 0.0
2017-Aug-25 00:00N 30°11' W 093°19'0 0.0
2017-Aug-24 23:31N 30°11' W 093°19'0 0.0
2017-Aug-24 23:00N 30°11' W 093°19'0 0.0
2017-Aug-24 22:30N 30°11' W 093°19'0 0.0
2017-Aug-24 22:00N 30°11' W 093°19'0 0.0
2017-Aug-24 21:30N 30°11' W 093°19'0 0.0
2017-Aug-24 21:00N 30°11' W 093°19'0 0.0
2017-Aug-24 20:30N 30°11' W 093°19'0 0.1
2017-Aug-24 20:00N 30°11' W 093°19'2 4.6
2017-Aug-24 19:30N 30°09' W 093°20'2 4.3
2017-Aug-24 19:01N 30°07' W 093°20'2 4.8
2017-Aug-24 18:30N 30°05' W 093°20'0 0.8
2017-Aug-24 18:00N 30°04' W 093°21'1 1.3
2017-Aug-24 17:30N 30°05' W 093°20'1 1.3
2017-Aug-24 17:00N 30°04' W 093°21'0 0.0
2017-Aug-24 16:30N 30°04' W 093°21'0 0.0
2017-Aug-24 16:00N 30°04' W 093°21'0 0.0
2017-Aug-24 15:30N 30°04' W 093°21'0 0.0
2017-Aug-24 15:00N 30°04' W 093°21'0 0.0
2017-Aug-24 14:30N 30°04' W 093°21'0 0.0
2017-Aug-24 14:00N 30°04' W 093°21'0 0.0
2017-Aug-24 13:30N 30°04' W 093°21'0 0.0
2017-Aug-24 13:00N 30°04' W 093°21'0 0.0
2017-Aug-24 12:30N 30°04' W 093°21'0 0.0
2017-Aug-24 12:00N 30°04' W 093°21'0 0.0
2017-Aug-24 11:30N 30°04' W 093°21'0 0.0
2017-Aug-24 11:01N 30°04' W 093°21'0 0.0
2017-Aug-24 10:30N 30°04' W 093°21'0 0.0
2017-Aug-24 10:00N 30°04' W 093°21'0 0.0
2017-Aug-24 09:30N 30°04' W 093°21'0 0.0
2017-Aug-24 09:00N 30°04' W 093°21'0 0.0
2017-Aug-24 08:30N 30°04' W 093°21'0 0.0
2017-Aug-24 08:00N 30°04' W 093°21'0 0.0
2017-Aug-24 07:30N 30°04' W 093°21'0 0.0
2017-Aug-24 07:01N 30°04' W 093°21'0 0.0
2017-Aug-24 06:31N 30°04' W 093°21'0 0.0
2017-Aug-24 06:00N 30°04' W 093°21'0 0.0
2017-Aug-24 05:30N 30°04' W 093°21'0 0.0
2017-Aug-24 05:00N 30°04' W 093°21'0 0.0
2017-Aug-24 04:30N 30°04' W 093°21'0 0.0
2017-Aug-24 04:00N 30°04' W 093°21'0 0.0
2017-Aug-24 03:30N 30°04' W 093°21'0 0.0
2017-Aug-24 03:00N 30°04' W 093°21'0 0.0
2017-Aug-24 02:30N 30°04' W 093°21'0 0.0
2017-Aug-24 02:00N 30°04' W 093°21'0 0.0
2017-Aug-24 01:30N 30°04' W 093°21'  
Track history (hours):
 
Tides and Currents Weather Stations Pressure Air Temp Water Temp Dewpoint Dewpoint Depression Visibility Wind Speed Wind Dir Waves Ship Positions

Capt. Kirk Colletti

Owner: Genesis Marine, LLC, Houston, TX. More information available from US FCC via Universal Licensing System and Coast Guard Vessel Documentation Center.

Last reported at 2017-Sep-03 01:15 UTC. Time now 2017-Sep-19 17:19 UTC.
Position N 29°33' W 090°24'.
Warning: this ship's position is 16 days out of date.

Length 25 m; draft 3 m.

Type: Other ship. MMSI: 367505080.

Date/timePositionNaut miles runAvg speedWind from/ knotsBaromVisibWave heightAir tempDewpointWater temp
2017-Sep-03 01:15N 29°33' W 090°24'0 0.9
2017-Sep-03 00:56N 29°33' W 090°25'0 0.1
2017-Sep-03 00:25N 29°33' W 090°25'0 0.0
2017-Sep-02 23:55N 29°33' W 090°25'0 0.0
2017-Sep-02 22:56N 29°33' W 090°25'0 0.0
2017-Sep-02 22:14N 29°33' W 090°25'0 0.3
2017-Sep-02 22:00N 29°33' W 090°25'3 4.2
2017-Sep-02 21:19N 29°34' W 090°28'2 5.0
2017-Sep-02 20:57N 29°34' W 090°30'2 5.0
2017-Sep-02 20:30N 29°34' W 090°33'2 3.9
2017-Sep-02 20:00N 29°34' W 090°35'2 4.5
2017-Sep-02 19:30N 29°35' W 090°37'2 3.6
2017-Sep-02 19:00N 29°36' W 090°39'2 3.8
2017-Sep-02 18:30N 29°36' W 090°41'1 2.7
2017-Sep-02 18:00N 29°36' W 090°43'2 4.0
2017-Sep-02 17:30N 29°34' W 090°43'2 4.8
2017-Sep-02 17:01N 29°33' W 090°46'3 5.8
2017-Sep-02 16:30N 29°32' W 090°49'4 6.2
2017-Sep-02 15:55N 29°32' W 090°53'60 3.9
2017-Sep-02 00:23N 29°50' W 091°59'2 5.9
2017-Sep-02 00:00N 29°49' W 092°02'2 4.1
2017-Sep-01 23:30N 29°49' W 092°04'2 4.1
2017-Sep-01 23:00N 29°48' W 092°06'2 4.2
2017-Sep-01 22:30N 29°47' W 092°08'2 4.5
2017-Sep-01 22:00N 29°47' W 092°11'2 4.6
2017-Sep-01 21:30N 29°47' W 092°13'3 5.1
2017-Sep-01 21:00N 29°48' W 092°16'3 5.3
2017-Sep-01 20:30N 29°50' W 092°18'36 4.7
2017-Sep-01 12:51N 29°56' W 092°60'2 4.7
2017-Sep-01 12:30N 29°56' W 093°01'2 4.3
2017-Sep-01 12:00N 29°56' W 093°04'1 3.0
2017-Sep-01 11:30N 29°56' W 093°06'2 4.4
2017-Sep-01 11:00N 29°56' W 093°08'2 4.2
2017-Sep-01 10:30N 29°57' W 093°10'2 4.5
2017-Sep-01 10:00N 29°59' W 093°12'2 4.4
2017-Sep-01 09:30N 30°00' W 093°14'2 3.6
2017-Sep-01 09:00N 30°02' W 093°15'2 3.5
2017-Sep-01 08:30N 30°03' W 093°16'2 3.9
2017-Sep-01 08:01N 30°05' W 093°17'1 2.7
2017-Sep-01 07:30N 30°06' W 093°18'1 1.6
2017-Sep-01 07:00N 30°06' W 093°19'0 0.0
2017-Sep-01 06:30N 30°06' W 093°19'0 0.0
2017-Sep-01 06:00N 30°06' W 093°19'0 0.0
2017-Sep-01 05:30N 30°06' W 093°19'0 0.0
2017-Sep-01 05:00N 30°06' W 093°19'0 0.0
2017-Sep-01 04:30N 30°06' W 093°19'0 0.0
2017-Sep-01 04:00N 30°06' W 093°19'0 0.0
2017-Sep-01 03:30N 30°06' W 093°19'0 0.0
2017-Sep-01 03:00N 30°06' W 093°19'0 0.0
2017-Sep-01 02:30N 30°06' W 093°19'0 0.0
2017-Sep-01 02:00N 30°06' W 093°19'0 0.0
2017-Sep-01 01:30N 30°06' W 093°19'0 0.0
2017-Sep-01 01:01N 30°06' W 093°19'0 0.0
2017-Sep-01 00:30N 30°06' W 093°19'0 0.2
2017-Sep-01 00:00N 30°06' W 093°19'0 0.9
2017-Aug-31 23:30N 30°05' W 093°20'0 0.5
2017-Aug-31 23:00N 30°05' W 093°20'0 0.8
2017-Aug-31 22:30N 30°05' W 093°20'0 0.0
2017-Aug-31 22:00N 30°05' W 093°20'3 6.0
2017-Aug-31 21:30N 30°08' W 093°20'3 5.0
2017-Aug-31 21:00N 30°10' W 093°19'0 0.0
2017-Aug-31 20:30N 30°10' W 093°19'0 0.0
2017-Aug-31 20:00N 30°10' W 093°19'0 0.0
2017-Aug-31 19:30N 30°10' W 093°19'6 0.7
2017-Aug-31 11:52N 30°05' W 093°20'0 0.0
2017-Aug-31 11:30N 30°05' W 093°20'0 0.0
2017-Aug-31 11:00N 30°05' W 093°20'0 0.0
2017-Aug-31 10:30N 30°05' W 093°20'0 0.0
2017-Aug-31 10:00N 30°05' W 093°20'0 0.0
2017-Aug-31 09:30N 30°05' W 093°20'0 0.0
2017-Aug-31 09:00N 30°05' W 093°20'0 0.0
2017-Aug-31 08:30N 30°05' W 093°20'0 0.0
2017-Aug-31 08:00N 30°05' W 093°20'0 0.0
2017-Aug-31 07:30N 30°05' W 093°20'0 0.0
2017-Aug-31 07:00N 30°05' W 093°20'0 0.0
2017-Aug-31 06:30N 30°05' W 093°20'0 0.0
2017-Aug-31 06:00N 30°05' W 093°20'0 0.0
2017-Aug-31 05:30N 30°05' W 093°20'0 0.0
2017-Aug-31 05:00N 30°05' W 093°20'0 0.0
2017-Aug-31 04:30N 30°05' W 093°20'0 0.0
2017-Aug-31 04:00N 30°05' W 093°20'0 0.0
2017-Aug-31 03:30N 30°05' W 093°20'0 0.0
2017-Aug-31 03:00N 30°05' W 093°20'0 0.0
2017-Aug-31 02:30N 30°05' W 093°20'0 0.0
2017-Aug-31 02:00N 30°05' W 093°20'0 0.0
2017-Aug-31 01:30N 30°05' W 093°20'0 0.0
2017-Aug-31 01:00N 30°05' W 093°20'0 0.0
2017-Aug-31 00:30N 30°05' W 093°20'0 0.0
2017-Aug-31 00:00N 30°05' W 093°20'0 0.0
2017-Aug-30 23:30N 30°05' W 093°20'0 0.0
2017-Aug-30 23:00N 30°05' W 093°20'0 0.0
2017-Aug-30 22:30N 30°05' W 093°20'0 0.0
2017-Aug-30 22:00N 30°05' W 093°20'0 0.0
2017-Aug-30 21:31N 30°05' W 093°20'0 0.6
2017-Aug-30 21:00N 30°05' W 093°20'1 1.8
2017-Aug-30 20:30N 30°06' W 093°20'3 6.9
2017-Aug-30 20:00N 30°09' W 093°20'1 2.2
2017-Aug-30 19:30N 30°10' W 093°19'0 0.0
2017-Aug-30 19:00N 30°10' W 093°19'0 0.0
2017-Aug-30 18:30N 30°10' W 093°19'0 0.0
2017-Aug-30 18:00N 30°10' W 093°19'0 0.0
2017-Aug-30 17:30N 30°10' W 093°19'0 0.0
2017-Aug-30 17:01N 30°10' W 093°19'0 0.0
2017-Aug-30 16:30N 30°10' W 093°19'0 0.0
2017-Aug-30 16:00N 30°10' W 093°19'0 0.0
2017-Aug-30 15:30N 30°10' W 093°19'0 0.0
2017-Aug-30 15:00N 30°10' W 093°19'0 0.0
2017-Aug-30 14:30N 30°10' W 093°19'0 0.0
2017-Aug-30 14:00N 30°10' W 093°19'0 0.0
2017-Aug-30 13:30N 30°10' W 093°19'0 0.0
2017-Aug-30 13:00N 30°10' W 093°19'0 0.0
2017-Aug-30 12:30N 30°10' W 093°19'0 0.0
2017-Aug-30 12:00N 30°10' W 093°19'0 0.0
2017-Aug-30 11:30N 30°10' W 093°19'0 0.0
2017-Aug-30 11:00N 30°10' W 093°19'0 0.0
2017-Aug-30 10:30N 30°10' W 093°19'0 0.0
2017-Aug-30 10:01N 30°10' W 093°19'0 0.0
2017-Aug-30 09:30N 30°10' W 093°19'0 0.0
2017-Aug-30 09:00N 30°10' W 093°19'0 0.0
2017-Aug-30 08:30N 30°10' W 093°19'0 0.0
2017-Aug-30 08:00N 30°10' W 093°19'0 0.0
2017-Aug-30 07:30N 30°10' W 093°19'0 0.0
2017-Aug-30 07:00N 30°10' W 093°19'0 0.0
2017-Aug-30 06:30N 30°10' W 093°19'0 0.0
2017-Aug-30 06:00N 30°10' W 093°19'0 0.0
2017-Aug-30 05:30N 30°10' W 093°19'0 0.0
2017-Aug-30 05:00N 30°10' W 093°19'0 0.0
2017-Aug-30 04:30N 30°10' W 093°19'0 0.0
2017-Aug-30 04:00N 30°10' W 093°19'0 0.0
2017-Aug-30 03:31N 30°10' W 093°19'0 0.0
2017-Aug-30 03:00N 30°10' W 093°19'0 0.0
2017-Aug-30 02:30N 30°10' W 093°19'0 0.0
2017-Aug-30 02:00N 30°10' W 093°19'0 0.0
2017-Aug-30 01:30N 30°10' W 093°19'0 0.0
2017-Aug-30 01:00N 30°10' W 093°19'0 0.0
2017-Aug-30 00:30N 30°10' W 093°19'0 0.0
2017-Aug-30 00:00N 30°10' W 093°19'0 0.0
2017-Aug-29 23:30N 30°10' W 093°19'0 0.0
2017-Aug-29 23:00N 30°10' W 093°19'0 0.0
2017-Aug-29 22:30N 30°10' W 093°19'0 0.0
2017-Aug-29 22:00N 30°10' W 093°19'0 0.0
2017-Aug-29 21:30N 30°10' W 093°19'0 0.0
2017-Aug-29 21:00N 30°10' W 093°19'0 0.0
2017-Aug-29 20:30N 30°10' W 093°19'0 0.0
2017-Aug-29 20:00N 30°10' W 093°19'0 0.0
2017-Aug-29 19:30N 30°10' W 093°19'0 0.0
2017-Aug-29 19:00N 30°10' W 093°19'0 0.0
2017-Aug-29 18:30N 30°10' W 093°19'0 0.0
2017-Aug-29 18:00N 30°10' W 093°19'0 0.0
2017-Aug-29 17:30N 30°10' W 093°19'0 0.0
2017-Aug-29 17:00N 30°10' W 093°19'0 0.0
2017-Aug-29 16:30N 30°10' W 093°19'0 0.0
2017-Aug-29 16:00N 30°10' W 093°19'0 0.0
2017-Aug-29 15:30N 30°10' W 093°19'0 0.0
2017-Aug-29 15:00N 30°10' W 093°19'0 0.0
2017-Aug-29 14:31N 30°10' W 093°19'0 0.0
2017-Aug-29 14:00N 30°10' W 093°19'0 0.0
2017-Aug-29 13:30N 30°10' W 093°19'0 0.0
2017-Aug-29 13:00N 30°10' W 093°19'0 0.0
2017-Aug-29 12:30N 30°10' W 093°19'0 0.0
2017-Aug-29 12:00N 30°10' W 093°19'0 0.0
2017-Aug-29 11:31N 30°10' W 093°19'0 0.0
2017-Aug-29 11:00N 30°10' W 093°19'0 0.0
2017-Aug-29 10:30N 30°10' W 093°19'0 0.0
2017-Aug-29 10:00N 30°10' W 093°19'0 0.0
2017-Aug-29 09:30N 30°10' W 093°19'0 0.0
2017-Aug-29 09:00N 30°10' W 093°19'0 0.0
2017-Aug-29 08:31N 30°10' W 093°19'0 0.0
2017-Aug-29 08:00N 30°10' W 093°19'0 0.0
2017-Aug-29 07:30N 30°10' W 093°19'0 0.0
2017-Aug-29 07:00N 30°10' W 093°19'0 0.0
2017-Aug-29 06:30N 30°10' W 093°19'0 0.0
2017-Aug-29 06:01N 30°10' W 093°19'0 0.0
2017-Aug-29 05:30N 30°10' W 093°19'0 0.0
2017-Aug-29 05:00N 30°10' W 093°19'0 0.0
2017-Aug-29 04:30N 30°10' W 093°19'0 0.0
2017-Aug-29 04:00N 30°10' W 093°19'0 0.0
2017-Aug-29 03:30N 30°10' W 093°19'0 0.0
2017-Aug-29 03:01N 30°10' W 093°19'0 0.0
2017-Aug-29 02:30N 30°10' W 093°19'0 0.0
2017-Aug-29 02:00N 30°10' W 093°19'0 0.0
2017-Aug-29 01:30N 30°10' W 093°19'0 0.0
2017-Aug-29 01:00N 30°10' W 093°19'0 0.0
2017-Aug-29 00:30N 30°10' W 093°19'0 0.0
2017-Aug-29 00:00N 30°10' W 093°19'0 0.0
2017-Aug-28 23:30N 30°10' W 093°19'1 1.1
2017-Aug-28 23:00N 30°11' W 093°19'1 1.1
2017-Aug-28 22:30N 30°10' W 093°19'0 0.0
2017-Aug-28 22:00N 30°10' W 093°19'0 0.0
2017-Aug-28 21:31N 30°10' W 093°19'0 0.0
2017-Aug-28 21:00N 30°10' W 093°19'0 0.0
2017-Aug-28 20:30N 30°10' W 093°19'0 0.0
2017-Aug-28 20:00N 30°10' W 093°19'0 0.0
2017-Aug-28 19:30N 30°10' W 093°19'0 0.0
2017-Aug-28 19:00N 30°10' W 093°19'0 0.1
2017-Aug-28 18:30N 30°10' W 093°19'1 2.3
2017-Aug-28 18:00N 30°09' W 093°20'1 2.9
2017-Aug-28 17:30N 30°08' W 093°20'1 2.0
2017-Aug-28 17:00N 30°07' W 093°20'3 7.0
2017-Aug-28 16:30N 30°10' W 093°19'0 0.0
2017-Aug-28 16:01N 30°10' W 093°19'0 0.0
2017-Aug-28 15:31N 30°10' W 093°19'0 0.1
2017-Aug-28 15:00N 30°10' W 093°19'0 0.0
2017-Aug-28 14:30N 30°10' W 093°19'0 0.3
2017-Aug-28 14:00N 30°10' W 093°19'3 5.8
2017-Aug-28 13:30N 30°07' W 093°20'2 4.5
2017-Aug-28 13:00N 30°05' W 093°20'0 0.7
2017-Aug-28 12:30N 30°05' W 093°20'0 0.1
2017-Aug-28 12:00N 30°05' W 093°20'0 0.0
2017-Aug-28 11:30N 30°05' W 093°20'0 0.0
2017-Aug-28 11:01N 30°05' W 093°20'0 0.0
2017-Aug-28 10:30N 30°05' W 093°20'0 0.0
2017-Aug-28 10:00N 30°05' W 093°20'0 0.0
2017-Aug-28 09:30N 30°05' W 093°20'0 0.0
2017-Aug-28 09:00N 30°05' W 093°20'0 0.0
2017-Aug-28 08:30N 30°05' W 093°20'0 0.0
2017-Aug-28 08:00N 30°05' W 093°20'0 0.0
2017-Aug-28 07:30N 30°05' W 093°20'0 0.0
2017-Aug-28 07:00N 30°05' W 093°20'0 0.0
2017-Aug-28 06:31N 30°05' W 093°20'0 0.0
2017-Aug-28 06:00N 30°05' W 093°20'0 0.0
2017-Aug-28 05:30N 30°05' W 093°20'0 0.0
2017-Aug-28 05:00N 30°05' W 093°20'0 0.0
2017-Aug-28 04:30N 30°05' W 093°20'0 0.0
2017-Aug-28 04:00N 30°05' W 093°20'0 0.0
2017-Aug-28 03:30N 30°05' W 093°20'0 0.0
2017-Aug-28 03:00N 30°05' W 093°20'0 0.0
2017-Aug-28 02:30N 30°05' W 093°20'0 0.0
2017-Aug-28 02:00N 30°05' W 093°20'0 0.0
2017-Aug-28 01:31N 30°05' W 093°20'0 0.0
2017-Aug-28 01:01N 30°05' W 093°20'0 0.0
2017-Aug-28 00:30N 30°05' W 093°20'0 0.0
2017-Aug-28 00:00N 30°05' W 093°20'0 0.0
2017-Aug-27 23:30N 30°05' W 093°20'0 0.1
2017-Aug-27 23:00N 30°05' W 093°20'0 0.3
2017-Aug-27 22:30N 30°05' W 093°20'0 0.0
2017-Aug-27 22:01N 30°05' W 093°20'0 0.0
2017-Aug-27 21:30N 30°05' W 093°20'0 0.0
2017-Aug-27 21:00N 30°05' W 093°20'0 0.0
2017-Aug-27 20:30N 30°05' W 093°20'0 0.0
2017-Aug-27 20:01N 30°05' W 093°20'0 0.0
2017-Aug-27 19:30N 30°05' W 093°20'0 0.0
2017-Aug-27 19:00N 30°05' W 093°20'0 0.0
2017-Aug-27 18:30N 30°05' W 093°20'0 0.0
2017-Aug-27 18:00N 30°05' W 093°20'0 0.0
2017-Aug-27 17:30N 30°05' W 093°20'0 0.0
2017-Aug-27 17:00N 30°05' W 093°20'0 0.0
2017-Aug-27 16:30N 30°05' W 093°20'0 0.0
2017-Aug-27 16:00N 30°05' W 093°20'0 0.0
2017-Aug-27 15:30N 30°05' W 093°20'0 0.0
2017-Aug-27 15:00N 30°05' W 093°20'0 0.0
2017-Aug-27 14:30N 30°05' W 093°20'0 0.0
2017-Aug-27 14:00N 30°05' W 093°20'0 0.1
2017-Aug-27 13:30N 30°05' W 093°20'0 0.7
2017-Aug-27 13:00N 30°05' W 093°20'2 3.0
2017-Aug-27 12:30N 30°07' W 093°20'2 4.2
2017-Aug-27 12:00N 30°09' W 093°20'2 4.1
2017-Aug-27 11:30N 30°11' W 093°19'0 0.9
2017-Aug-27 11:00N 30°11' W 093°19'0 0.0
2017-Aug-27 10:31N 30°11' W 093°19'0 0.0
2017-Aug-27 10:01N 30°11' W 093°19'0 0.0
2017-Aug-27 09:30N 30°11' W 093°19'0 0.0
2017-Aug-27 09:00N 30°11' W 093°19'0 0.0
2017-Aug-27 08:30N 30°11' W 093°19'0 0.0
2017-Aug-27 08:01N 30°11' W 093°19'0 0.0
2017-Aug-27 07:30N 30°11' W 093°19'0 0.0
2017-Aug-27 07:00N 30°11' W 093°19'0 0.0
2017-Aug-27 06:30N 30°11' W 093°19'0 0.0
2017-Aug-27 06:00N 30°11' W 093°19'0 0.0
2017-Aug-27 05:30N 30°11' W 093°19'0 0.0
2017-Aug-27 05:00N 30°11' W 093°19'0 0.0
2017-Aug-27 04:30N 30°11' W 093°19'0 0.0
2017-Aug-27 04:00N 30°11' W 093°19'0 0.0
2017-Aug-27 03:30N 30°11' W 093°19'0 0.0
2017-Aug-27 03:00N 30°11' W 093°19'0 0.0
2017-Aug-27 02:30N 30°11' W 093°19'0 0.0
2017-Aug-27 02:00N 30°11' W 093°19'0 0.0
2017-Aug-27 01:31N 30°11' W 093°19'0 0.0
2017-Aug-27 01:00N 30°11' W 093°19'0 0.0
2017-Aug-27 00:30N 30°11' W 093°19'0 0.0
2017-Aug-27 00:00N 30°11' W 093°19'0 0.0
2017-Aug-26 23:30N 30°11' W 093°19'0 0.0
2017-Aug-26 23:00N 30°11' W 093°19'0 0.0
2017-Aug-26 22:30N 30°11' W 093°19'0 0.0
2017-Aug-26 22:00N 30°11' W 093°19'0 0.0
2017-Aug-26 21:30N 30°11' W 093°19'0 0.0
2017-Aug-26 21:00N 30°11' W 093°19'0 0.0
2017-Aug-26 20:30N 30°11' W 093°19'0 0.0
2017-Aug-26 20:00N 30°11' W 093°19'0 0.0
2017-Aug-26 19:30N 30°11' W 093°19'0 0.0
2017-Aug-26 19:00N 30°11' W 093°19'0 0.0
2017-Aug-26 18:30N 30°11' W 093°19'0 0.0
2017-Aug-26 18:01N 30°11' W 093°19'0 0.0
2017-Aug-26 17:30N 30°11' W 093°19'0 0.0
2017-Aug-26 17:00N 30°11' W 093°19'0 0.0
2017-Aug-26 16:31N 30°11' W 093°19'0 0.0
2017-Aug-26 16:00N 30°11' W 093°19'0 0.0
2017-Aug-26 15:31N 30°11' W 093°19'0 0.0
2017-Aug-26 15:00N 30°11' W 093°19'0 0.0
2017-Aug-26 14:00N 30°11' W 093°19'0 0.0
2017-Aug-26 13:30N 30°11' W 093°19'0 0.0
2017-Aug-26 13:00N 30°11' W 093°19'0 0.0
2017-Aug-26 12:30N 30°11' W 093°19'0 0.0
2017-Aug-26 12:00N 30°11' W 093°19'0 0.0
2017-Aug-26 11:30N 30°11' W 093°19'0 0.0
2017-Aug-26 11:00N 30°11' W 093°19'0 0.0
2017-Aug-26 10:30N 30°11' W 093°19'0 0.0
2017-Aug-26 10:00N 30°11' W 093°19'0 0.0
2017-Aug-26 09:30N 30°11' W 093°19'0 0.0
2017-Aug-26 09:00N 30°11' W 093°19'0 0.0
2017-Aug-26 08:30N 30°11' W 093°19'0 0.0
2017-Aug-26 08:00N 30°11' W 093°19'0 0.0
2017-Aug-26 07:30N 30°11' W 093°19'0 0.0
2017-Aug-26 07:00N 30°11' W 093°19'0 0.0
2017-Aug-26 06:30N 30°11' W 093°19'0 0.0
2017-Aug-26 06:00N 30°11' W 093°19'0 0.5
2017-Aug-26 05:30N 30°11' W 093°18'0 0.0
2017-Aug-26 05:00N 30°11' W 093°18'0 0.5
2017-Aug-26 04:30N 30°11' W 093°19'0 0.0
2017-Aug-26 04:00N 30°11' W 093°19'0 0.0
2017-Aug-26 03:30N 30°11' W 093°19'0 0.0
2017-Aug-26 03:00N 30°11' W 093°19'0 0.0
2017-Aug-26 02:30N 30°11' W 093°19'0 0.0
2017-Aug-26 02:00N 30°11' W 093°19'0 0.0
2017-Aug-26 01:31N 30°11' W 093°19'0 0.0
2017-Aug-26 01:00N 30°11' W 093°19'0 0.0
2017-Aug-26 00:30N 30°11' W 093°19'0 0.0
2017-Aug-26 00:00N 30°11' W 093°19'0 0.0
2017-Aug-25 23:31N 30°11' W 093°19'0 0.0
2017-Aug-25 23:00N 30°11' W 093°19'0 0.0
2017-Aug-25 22:30N 30°11' W 093°19'0 0.0
2017-Aug-25 22:00N 30°11' W 093°19'0 0.0
2017-Aug-25 21:30N 30°11' W 093°19'0 0.0
2017-Aug-25 21:00N 30°11' W 093°19'0 0.0
2017-Aug-25 20:30N 30°11' W 093°19'0 0.0
2017-Aug-25 20:00N 30°11' W 093°19'0 0.0
2017-Aug-25 19:31N 30°11' W 093°19'0 0.0
2017-Aug-25 19:00N 30°11' W 093°19'0 0.0
2017-Aug-25 18:30N 30°11' W 093°19'0 0.0
2017-Aug-25 18:00N 30°11' W 093°19'0 0.0
2017-Aug-25 17:31N 30°11' W 093°19'0 0.0
2017-Aug-25 17:00N 30°11' W 093°19'0 0.0
2017-Aug-25 16:31N 30°11' W 093°19'0 0.0
2017-Aug-25 16:00N 30°11' W 093°19'0 0.0
2017-Aug-25 15:30N 30°11' W 093°19'0 0.0
2017-Aug-25 15:00N 30°11' W 093°19'0 0.0
2017-Aug-25 14:00N 30°11' W 093°19'0 0.0
2017-Aug-25 13:30N 30°11' W 093°19'0 0.0
2017-Aug-25 13:00N 30°11' W 093°19'0 0.0
2017-Aug-25 12:30N 30°11' W 093°19'0 0.0
2017-Aug-25 12:00N 30°11' W 093°19'0 0.0
2017-Aug-25 11:31N 30°11' W 093°19'0 0.0
2017-Aug-25 11:00N 30°11' W 093°19'0 0.0
2017-Aug-25 10:30N 30°11' W 093°19'0 0.0
2017-Aug-25 10:00N 30°11' W 093°19'0 0.0
2017-Aug-25 09:30N 30°11' W 093°19'0 0.0
2017-Aug-25 09:00N 30°11' W 093°19'0 0.0
2017-Aug-25 08:30N 30°11' W 093°19'0 0.0
2017-Aug-25 08:00N 30°11' W 093°19'0 0.0
2017-Aug-25 07:30N 30°11' W 093°19'0 0.0
2017-Aug-25 07:00N 30°11' W 093°19'0 0.0
2017-Aug-25 06:30N 30°11' W 093°19'0 0.0
2017-Aug-25 06:00N 30°11' W 093°19'0 0.0
2017-Aug-25 05:30N 30°11' W 093°19'0 0.0
2017-Aug-25 05:00N 30°11' W 093°19'0 0.0
2017-Aug-25 04:30N 30°11' W 093°19'0 0.0
2017-Aug-25 04:00N 30°11' W 093°19'0 0.0
2017-Aug-25 03:30N 30°11' W 093°19'0 0.0
2017-Aug-25 03:01N 30°11' W 093°19'0 0.0
2017-Aug-25 02:31N 30°11' W 093°19'0 0.0
2017-Aug-25 02:00N 30°11' W 093°19'0 0.0
2017-Aug-25 01:30N 30°11' W 093°19'0 0.0
2017-Aug-25 01:00N 30°11' W 093°19'0 0.0
2017-Aug-25 00:30N 30°11' W 093°19'0 0.0
2017-Aug-25 00:00N 30°11' W 093°19'0 0.0
2017-Aug-24 23:31N 30°11' W 093°19'0 0.0
2017-Aug-24 23:00N 30°11' W 093°19'0 0.0
2017-Aug-24 22:30N 30°11' W 093°19'0 0.0
2017-Aug-24 22:00N 30°11' W 093°19'0 0.0
2017-Aug-24 21:30N 30°11' W 093°19'0 0.0
2017-Aug-24 21:00N 30°11' W 093°19'0 0.0
2017-Aug-24 20:30N 30°11' W 093°19'0 0.1
2017-Aug-24 20:00N 30°11' W 093°19'2 4.6
2017-Aug-24 19:30N 30°09' W 093°20'2 4.3
2017-Aug-24 19:01N 30°07' W 093°20'2 4.8
2017-Aug-24 18:30N 30°05' W 093°20'0 0.8
2017-Aug-24 18:00N 30°04' W 093°21'1 1.3
2017-Aug-24 17:30N 30°05' W 093°20'1 1.3
2017-Aug-24 17:00N 30°04' W 093°21'0 0.0
2017-Aug-24 16:30N 30°04' W 093°21'0 0.0
2017-Aug-24 16:00N 30°04' W 093°21'0 0.0
2017-Aug-24 15:30N 30°04' W 093°21'0 0.0
2017-Aug-24 15:00N 30°04' W 093°21'0 0.0
2017-Aug-24 14:30N 30°04' W 093°21'0 0.0
2017-Aug-24 14:00N 30°04' W 093°21'0 0.0
2017-Aug-24 13:30N 30°04' W 093°21'0 0.0
2017-Aug-24 13:00N 30°04' W 093°21'0 0.0
2017-Aug-24 12:30N 30°04' W 093°21'0 0.0
2017-Aug-24 12:00N 30°04' W 093°21'0 0.0
2017-Aug-24 11:30N 30°04' W 093°21'0 0.0
2017-Aug-24 11:01N 30°04' W 093°21'0 0.0
2017-Aug-24 10:30N 30°04' W 093°21'0 0.0
2017-Aug-24 10:00N 30°04' W 093°21'0 0.0
2017-Aug-24 09:30N 30°04' W 093°21'0 0.0
2017-Aug-24 09:00N 30°04' W 093°21'0 0.0
2017-Aug-24 08:30N 30°04' W 093°21'0 0.0
2017-Aug-24 08:00N 30°04' W 093°21'0 0.0
2017-Aug-24 07:30N 30°04' W 093°21'0 0.0
2017-Aug-24 07:01N 30°04' W 093°21'0 0.0
2017-Aug-24 06:31N 30°04' W 093°21'0 0.0
2017-Aug-24 06:00N 30°04' W 093°21'0 0.0
2017-Aug-24 05:30N 30°04' W 093°21'0 0.0
2017-Aug-24 05:00N 30°04' W 093°21'0 0.0
2017-Aug-24 04:30N 30°04' W 093°21'0 0.0
2017-Aug-24 04:00N 30°04' W 093°21'0 0.0
2017-Aug-24 03:30N 30°04' W 093°21'0 0.0
2017-Aug-24 03:00N 30°04' W 093°21'0 0.0
2017-Aug-24 02:30N 30°04' W 093°21'0 0.0
2017-Aug-24 02:00N 30°04' W 093°21'0 0.0
2017-Aug-24 01:30N 30°04' W 093°21'  

Dump ship's entire track history